シンガポール/チャンギ の空港の天気 - METARとTAF

シンガポール・チャンギ国際空港 ( WSSS / SIN ) - シンガポール Changi
飛行場実況気象(Metar)
観測時間07/29 11:30 SGT (07/29 03:30 UTC)
風向・風速南 5m/s
視程10km以上
天気現象
全天の4割程度の雲 雲底高度 610m
全天の8割程度の雲 雲底高度 9140m
気温32℃
湿度67%
気圧1011hPa
METARWSSS 290330Z 17010KT 140V200 9999 SCT020 BKN300 32/25 Q1011 NOSIG
過去の天気等 Google飛行場航空写真 Wunderground天気予報

過去48時間のMETAR

飛行場予報(TAF)
発表時間: 7/29 07:00 SGT (7/28 23:00 UTC)
予報対象時間: 29日8時 SGT ~ 30日14時 SGT
風向・風速南南東 5m/s
視程10km以上
少しの雲 雲底高度 460m
TAF WSSS 282300Z 2900/3006 15010KT 9999 FEW015